sensor_id;sensor_type;location;lat;lon;timestamp;P1;durP1;ratioP1;P2;durP2;ratioP2
16113;SDS011;8161;-33.910;151.156;2023-04-24T00:02:26;4.72;;;1.00;;
16113;SDS011;8161;-33.910;151.156;2023-04-24T00:04:57;3.55;;;1.00;;
16113;SDS011;8161;-33.910;151.156;2023-04-24T00:07:28;5.97;;;1.10;;
16113;SDS011;8161;-33.910;151.156;2023-04-24T00:09:55;6.10;;;0.90;;
16113;SDS011;8161;-33.910;151.156;2023-04-24T00:12:23;5.38;;;1.00;;
16113;SDS011;8161;-33.910;151.156;2023-04-24T00:14:52;4.43;;;0.93;;
16113;SDS011;8161;-33.910;151.156;2023-04-24T00:17:22;4.63;;;1.00;;
16113;SDS011;8161;-33.910;151.156;2023-04-24T00:19:52;4.72;;;0.90;;
16113;SDS011;8161;-33.910;151.156;2023-04-24T00:22:26;5.90;;;1.10;;
16113;SDS011;8161;-33.910;151.156;2023-04-24T00:24:54;5.95;;;1.00;;
16113;SDS011;8161;-33.910;151.156;2023-04-24T00:27:21;3.22;;;0.73;;
16113;SDS011;8161;-33.910;151.156;2023-04-24T00:29:49;5.30;;;1.00;;
16113;SDS011;8161;-33.910;151.156;2023-04-24T00:32:16;6.03;;;1.00;;
16113;SDS011;8161;-33.910;151.156;2023-04-24T00:34:43;4.75;;;1.00;;
16113;SDS011;8161;-33.910;151.156;2023-04-24T00:37:11;5.13;;;1.20;;
16113;SDS011;8161;-33.910;151.156;2023-04-24T00:39:38;4.55;;;0.90;;
16113;SDS011;8161;-33.910;151.156;2023-04-24T00:42:05;6.13;;;1.88;;
16113;SDS011;8161;-33.910;151.156;2023-04-24T00:44:32;5.32;;;1.20;;
16113;SDS011;8161;-33.910;151.156;2023-04-24T00:47:00;4.63;;;1.10;;
16113;SDS011;8161;-33.910;151.156;2023-04-24T00:49:28;5.93;;;1.40;;
16113;SDS011;8161;-33.910;151.156;2023-04-24T00:51:55;5.78;;;1.10;;
16113;SDS011;8161;-33.910;151.156;2023-04-24T00:54:24;5.75;;;1.27;;
16113;SDS011;8161;-33.910;151.156;2023-04-24T00:56:52;4.57;;;1.38;;
16113;SDS011;8161;-33.910;151.156;2023-04-24T00:59:19;6.03;;;1.30;;
16113;SDS011;8161;-33.910;151.156;2023-04-24T01:01:46;3.40;;;0.75;;
16113;SDS011;8161;-33.910;151.156;2023-04-24T01:04:14;3.58;;;0.82;;
16113;SDS011;8161;-33.910;151.156;2023-04-24T01:06:43;3.22;;;0.90;;
16113;SDS011;8161;-33.910;151.156;2023-04-24T01:09:11;3.55;;;0.98;;
16113;SDS011;8161;-33.910;151.156;2023-04-24T01:11:40;3.83;;;0.98;;
16113;SDS011;8161;-33.910;151.156;2023-04-24T01:14:11;5.88;;;1.20;;
16113;SDS011;8161;-33.910;151.156;2023-04-24T01:16:41;4.90;;;1.25;;
16113;SDS011;8161;-33.910;151.156;2023-04-24T01:19:09;3.72;;;1.05;;
16113;SDS011;8161;-33.910;151.156;2023-04-24T01:21:38;6.60;;;1.00;;
16113;SDS011;8161;-33.910;151.156;2023-04-24T01:24:09;8.07;;;1.10;;
16113;SDS011;8161;-33.910;151.156;2023-04-24T01:26:39;5.93;;;1.20;;
16113;SDS011;8161;-33.910;151.156;2023-04-24T01:29:06;7.40;;;1.40;;
16113;SDS011;8161;-33.910;151.156;2023-04-24T01:31:33;7.55;;;1.20;;
16113;SDS011;8161;-33.910;151.156;2023-04-24T01:34:01;4.65;;;1.00;;
16113;SDS011;8161;-33.910;151.156;2023-04-24T01:36:29;6.53;;;1.20;;
16113;SDS011;8161;-33.910;151.156;2023-04-24T01:38:57;5.93;;;1.20;;
16113;SDS011;8161;-33.910;151.156;2023-04-24T01:41:27;3.97;;;1.08;;
16113;SDS011;8161;-33.910;151.156;2023-04-24T01:43:54;4.87;;;1.30;;
16113;SDS011;8161;-33.910;151.156;2023-04-24T01:46:23;5.10;;;1.30;;
16113;SDS011;8161;-33.910;151.156;2023-04-24T01:48:51;4.53;;;1.38;;
16113;SDS011;8161;-33.910;151.156;2023-04-24T01:51:19;6.50;;;1.38;;
16113;SDS011;8161;-33.910;151.156;2023-04-24T01:53:46;10.68;;;1.80;;
16113;SDS011;8161;-33.910;151.156;2023-04-24T01:56:13;14.15;;;2.65;;
16113;SDS011;8161;-33.910;151.156;2023-04-24T01:58:41;10.60;;;2.40;;
16113;SDS011;8161;-33.910;151.156;2023-04-24T02:01:09;9.82;;;2.22;;
16113;SDS011;8161;-33.910;151.156;2023-04-24T02:03:41;11.52;;;2.00;;
16113;SDS011;8161;-33.910;151.156;2023-04-24T02:06:11;12.73;;;2.28;;
16113;SDS011;8161;-33.910;151.156;2023-04-24T02:08:38;10.70;;;3.60;;
16113;SDS011;8161;-33.910;151.156;2023-04-24T02:11:05;15.23;;;3.50;;
16113;SDS011;8161;-33.910;151.156;2023-04-24T02:13:32;14.00;;;3.63;;
16113;SDS011;8161;-33.910;151.156;2023-04-24T02:16:00;9.98;;;2.67;;
16113;SDS011;8161;-33.910;151.156;2023-04-24T02:18:27;11.27;;;2.30;;
16113;SDS011;8161;-33.910;151.156;2023-04-24T02:20:54;11.30;;;2.53;;
16113;SDS011;8161;-33.910;151.156;2023-04-24T02:23:21;10.90;;;2.58;;
16113;SDS011;8161;-33.910;151.156;2023-04-24T02:25:49;11.45;;;2.80;;
16113;SDS011;8161;-33.910;151.156;2023-04-24T02:28:19;10.60;;;2.47;;
16113;SDS011;8161;-33.910;151.156;2023-04-24T02:30:46;10.15;;;2.17;;
16113;SDS011;8161;-33.910;151.156;2023-04-24T02:33:13;9.73;;;2.13;;
16113;SDS011;8161;-33.910;151.156;2023-04-24T02:35:41;8.77;;;2.00;;
16113;SDS011;8161;-33.910;151.156;2023-04-24T02:38:11;15.90;;;2.67;;
16113;SDS011;8161;-33.910;151.156;2023-04-24T02:40:38;9.60;;;2.20;;
16113;SDS011;8161;-33.910;151.156;2023-04-24T02:43:05;9.32;;;2.17;;
16113;SDS011;8161;-33.910;151.156;2023-04-24T02:45:33;10.73;;;2.10;;
16113;SDS011;8161;-33.910;151.156;2023-04-24T02:48:00;10.38;;;3.00;;
16113;SDS011;8161;-33.910;151.156;2023-04-24T02:50:27;12.73;;;2.42;;
16113;SDS011;8161;-33.910;151.156;2023-04-24T02:52:54;10.27;;;1.70;;
16113;SDS011;8161;-33.910;151.156;2023-04-24T02:55:21;8.65;;;2.58;;
16113;SDS011;8161;-33.910;151.156;2023-04-24T02:57:52;7.43;;;2.00;;
16113;SDS011;8161;-33.910;151.156;2023-04-24T03:00:19;7.77;;;2.00;;
16113;SDS011;8161;-33.910;151.156;2023-04-24T03:02:46;8.68;;;1.80;;
16113;SDS011;8161;-33.910;151.156;2023-04-24T03:05:15;8.45;;;2.25;;
16113;SDS011;8161;-33.910;151.156;2023-04-24T03:07:42;10.35;;;2.20;;
16113;SDS011;8161;-33.910;151.156;2023-04-24T03:10:11;7.38;;;2.22;;
16113;SDS011;8161;-33.910;151.156;2023-04-24T03:12:38;13.00;;;2.67;;
16113;SDS011;8161;-33.910;151.156;2023-04-24T03:15:05;11.00;;;2.53;;
16113;SDS011;8161;-33.910;151.156;2023-04-24T03:17:32;10.68;;;2.45;;
16113;SDS011;8161;-33.910;151.156;2023-04-24T03:20:01;10.52;;;2.15;;
16113;SDS011;8161;-33.910;151.156;2023-04-24T03:22:30;14.50;;;2.50;;
16113;SDS011;8161;-33.910;151.156;2023-04-24T03:24:59;8.95;;;2.10;;
16113;SDS011;8161;-33.910;151.156;2023-04-24T03:27:26;11.90;;;2.47;;
16113;SDS011;8161;-33.910;151.156;2023-04-24T03:29:53;10.13;;;2.00;;
16113;SDS011;8161;-33.910;151.156;2023-04-24T03:32:21;8.57;;;2.13;;
16113;SDS011;8161;-33.910;151.156;2023-04-24T03:34:49;8.93;;;2.30;;
16113;SDS011;8161;-33.910;151.156;2023-04-24T03:37:19;11.90;;;2.70;;
16113;SDS011;8161;-33.910;151.156;2023-04-24T03:39:46;11.48;;;2.28;;
16113;SDS011;8161;-33.910;151.156;2023-04-24T03:42:13;10.20;;;2.53;;
16113;SDS011;8161;-33.910;151.156;2023-04-24T03:44:41;11.13;;;2.97;;
16113;SDS011;8161;-33.910;151.156;2023-04-24T03:47:08;7.88;;;1.80;;
16113;SDS011;8161;-33.910;151.156;2023-04-24T03:49:35;8.93;;;2.22;;
16113;SDS011;8161;-33.910;151.156;2023-04-24T03:52:05;9.32;;;2.15;;
16113;SDS011;8161;-33.910;151.156;2023-04-24T03:54:32;10.02;;;1.80;;
16113;SDS011;8161;-33.910;151.156;2023-04-24T03:56:59;10.35;;;2.22;;
16113;SDS011;8161;-33.910;151.156;2023-04-24T03:59:27;11.13;;;2.47;;
16113;SDS011;8161;-33.910;151.156;2023-04-24T04:01:54;12.90;;;2.53;;
16113;SDS011;8161;-33.910;151.156;2023-04-24T04:04:21;13.13;;;2.10;;
16113;SDS011;8161;-33.910;151.156;2023-04-24T04:06:48;11.07;;;2.25;;
16113;SDS011;8161;-33.910;151.156;2023-04-24T04:09:16;9.98;;;2.38;;
16113;SDS011;8161;-33.910;151.156;2023-04-24T04:11:44;7.70;;;1.88;;
16113;SDS011;8161;-33.910;151.156;2023-04-24T04:14:11;13.27;;;2.83;;
16113;SDS011;8161;-33.910;151.156;2023-04-24T04:16:38;9.82;;;2.20;;
16113;SDS011;8161;-33.910;151.156;2023-04-24T04:19:05;10.77;;;2.20;;
16113;SDS011;8161;-33.910;151.156;2023-04-24T04:21:32;8.95;;;2.33;;
16113;SDS011;8161;-33.910;151.156;2023-04-24T04:24:00;10.35;;;2.22;;
16113;SDS011;8161;-33.910;151.156;2023-04-24T04:26:27;8.13;;;2.00;;
16113;SDS011;8161;-33.910;151.156;2023-04-24T04:28:57;12.50;;;2.03;;
16113;SDS011;8161;-33.910;151.156;2023-04-24T04:31:26;10.27;;;2.28;;
16113;SDS011;8161;-33.910;151.156;2023-04-24T04:33:53;12.50;;;2.70;;
16113;SDS011;8161;-33.910;151.156;2023-04-24T04:36:20;12.98;;;2.45;;
16113;SDS011;8161;-33.910;151.156;2023-04-24T04:38:49;11.43;;;2.20;;
16113;SDS011;8161;-33.910;151.156;2023-04-24T04:41:16;10.43;;;2.10;;
16113;SDS011;8161;-33.910;151.156;2023-04-24T04:43:43;9.93;;;2.15;;
16113;SDS011;8161;-33.910;151.156;2023-04-24T04:46:12;10.90;;;2.50;;
16113;SDS011;8161;-33.910;151.156;2023-04-24T04:48:39;9.90;;;2.30;;
16113;SDS011;8161;-33.910;151.156;2023-04-24T04:51:06;12.55;;;2.72;;
16113;SDS011;8161;-33.910;151.156;2023-04-24T04:53:33;10.30;;;2.20;;
16113;SDS011;8161;-33.910;151.156;2023-04-24T04:56:00;12.57;;;2.33;;
16113;SDS011;8161;-33.910;151.156;2023-04-24T04:58:28;17.85;;;3.53;;
16113;SDS011;8161;-33.910;151.156;2023-04-24T05:00:56;14.32;;;2.75;;
16113;SDS011;8161;-33.910;151.156;2023-04-24T05:03:23;13.65;;;2.88;;
16113;SDS011;8161;-33.910;151.156;2023-04-24T05:05:50;16.20;;;3.50;;
16113;SDS011;8161;-33.910;151.156;2023-04-24T05:08:18;14.30;;;3.07;;
16113;SDS011;8161;-33.910;151.156;2023-04-24T05:10:45;14.15;;;3.28;;
16113;SDS011;8161;-33.910;151.156;2023-04-24T05:13:12;12.93;;;3.08;;
16113;SDS011;8161;-33.910;151.156;2023-04-24T05:15:39;15.53;;;3.00;;
16113;SDS011;8161;-33.910;151.156;2023-04-24T05:18:07;17.52;;;3.20;;
16113;SDS011;8161;-33.910;151.156;2023-04-24T05:20:34;18.38;;;3.00;;
16113;SDS011;8161;-33.910;151.156;2023-04-24T05:23:01;18.77;;;3.30;;
16113;SDS011;8161;-33.910;151.156;2023-04-24T05:25:28;16.10;;;3.38;;
16113;SDS011;8161;-33.910;151.156;2023-04-24T05:28:00;18.77;;;3.60;;
16113;SDS011;8161;-33.910;151.156;2023-04-24T05:30:28;17.63;;;2.83;;
16113;SDS011;8161;-33.910;151.156;2023-04-24T05:32:55;19.52;;;3.28;;
16113;SDS011;8161;-33.910;151.156;2023-04-24T05:35:23;17.52;;;3.40;;
16113;SDS011;8161;-33.910;151.156;2023-04-24T05:37:50;16.42;;;3.58;;
16113;SDS011;8161;-33.910;151.156;2023-04-24T05:40:17;16.80;;;3.45;;
16113;SDS011;8161;-33.910;151.156;2023-04-24T05:42:45;16.97;;;3.33;;
16113;SDS011;8161;-33.910;151.156;2023-04-24T05:45:12;19.50;;;3.25;;
16113;SDS011;8161;-33.910;151.156;2023-04-24T05:47:42;18.53;;;3.53;;
16113;SDS011;8161;-33.910;151.156;2023-04-24T05:50:10;18.90;;;3.65;;
16113;SDS011;8161;-33.910;151.156;2023-04-24T05:52:37;20.63;;;3.80;;
16113;SDS011;8161;-33.910;151.156;2023-04-24T05:55:04;20.23;;;3.55;;
16113;SDS011;8161;-33.910;151.156;2023-04-24T05:57:33;19.70;;;3.90;;
16113;SDS011;8161;-33.910;151.156;2023-04-24T06:00:00;16.73;;;3.33;;
16113;SDS011;8161;-33.910;151.156;2023-04-24T06:02:27;21.42;;;3.88;;
16113;SDS011;8161;-33.910;151.156;2023-04-24T06:04:58;20.53;;;3.40;;
16113;SDS011;8161;-33.910;151.156;2023-04-24T06:07:25;21.08;;;3.75;;
16113;SDS011;8161;-33.910;151.156;2023-04-24T06:09:53;27.05;;;4.18;;
16113;SDS011;8161;-33.910;151.156;2023-04-24T06:12:20;20.80;;;4.20;;
16113;SDS011;8161;-33.910;151.156;2023-04-24T06:14:47;24.27;;;4.20;;
16113;SDS011;8161;-33.910;151.156;2023-04-24T06:17:15;20.63;;;3.53;;
16113;SDS011;8161;-33.910;151.156;2023-04-24T06:19:43;25.20;;;5.75;;
16113;SDS011;8161;-33.910;151.156;2023-04-24T06:22:10;17.83;;;3.63;;
16113;SDS011;8161;-33.910;151.156;2023-04-24T06:24:39;23.48;;;4.00;;
16113;SDS011;8161;-33.910;151.156;2023-04-24T06:27:06;18.33;;;3.40;;
16113;SDS011;8161;-33.910;151.156;2023-04-24T06:29:33;15.52;;;3.60;;
16113;SDS011;8161;-33.910;151.156;2023-04-24T06:32:02;20.52;;;3.65;;
16113;SDS011;8161;-33.910;151.156;2023-04-24T06:34:29;20.47;;;4.03;;
16113;SDS011;8161;-33.910;151.156;2023-04-24T06:36:58;20.23;;;3.88;;
16113;SDS011;8161;-33.910;151.156;2023-04-24T06:39:25;27.02;;;4.43;;
16113;SDS011;8161;-33.910;151.156;2023-04-24T06:41:53;19.63;;;3.75;;
16113;SDS011;8161;-33.910;151.156;2023-04-24T06:44:20;19.75;;;3.70;;
16113;SDS011;8161;-33.910;151.156;2023-04-24T06:46:47;19.67;;;3.80;;
16113;SDS011;8161;-33.910;151.156;2023-04-24T06:49:14;19.95;;;3.95;;
16113;SDS011;8161;-33.910;151.156;2023-04-24T06:51:42;20.55;;;3.78;;
16113;SDS011;8161;-33.910;151.156;2023-04-24T06:54:09;23.08;;;4.00;;
16113;SDS011;8161;-33.910;151.156;2023-04-24T06:56:36;20.88;;;3.80;;
16113;SDS011;8161;-33.910;151.156;2023-04-24T06:59:04;16.00;;;3.42;;
16113;SDS011;8161;-33.910;151.156;2023-04-24T07:01:31;16.98;;;3.42;;
16113;SDS011;8161;-33.910;151.156;2023-04-24T07:03:58;21.23;;;4.30;;
16113;SDS011;8161;-33.910;151.156;2023-04-24T07:06:25;22.25;;;3.65;;
16113;SDS011;8161;-33.910;151.156;2023-04-24T07:08:53;19.88;;;3.50;;
16113;SDS011;8161;-33.910;151.156;2023-04-24T07:11:21;19.65;;;3.58;;
16113;SDS011;8161;-33.910;151.156;2023-04-24T07:13:48;20.45;;;3.50;;
16113;SDS011;8161;-33.910;151.156;2023-04-24T07:16:15;22.27;;;3.80;;
16113;SDS011;8161;-33.910;151.156;2023-04-24T07:18:43;16.50;;;2.88;;
16113;SDS011;8161;-33.910;151.156;2023-04-24T07:21:10;18.15;;;3.22;;
16113;SDS011;8161;-33.910;151.156;2023-04-24T07:23:37;17.08;;;3.22;;
16113;SDS011;8161;-33.910;151.156;2023-04-24T07:26:06;18.75;;;3.33;;
16113;SDS011;8161;-33.910;151.156;2023-04-24T07:28:34;15.85;;;2.85;;
16113;SDS011;8161;-33.910;151.156;2023-04-24T07:31:01;15.75;;;2.92;;
16113;SDS011;8161;-33.910;151.156;2023-04-24T07:33:28;16.80;;;3.67;;
16113;SDS011;8161;-33.910;151.156;2023-04-24T07:35:55;18.38;;;3.55;;
16113;SDS011;8161;-33.910;151.156;2023-04-24T07:38:23;15.27;;;4.32;;
16113;SDS011;8161;-33.910;151.156;2023-04-24T07:40:51;15.60;;;3.30;;
16113;SDS011;8161;-33.910;151.156;2023-04-24T07:43:19;16.27;;;3.00;;
16113;SDS011;8161;-33.910;151.156;2023-04-24T07:45:47;15.07;;;3.40;;
16113;SDS011;8161;-33.910;151.156;2023-04-24T07:48:14;16.17;;;3.50;;
16113;SDS011;8161;-33.910;151.156;2023-04-24T07:50:43;14.35;;;2.75;;
16113;SDS011;8161;-33.910;151.156;2023-04-24T07:53:11;16.83;;;3.03;;
16113;SDS011;8161;-33.910;151.156;2023-04-24T07:55:38;16.10;;;2.95;;
16113;SDS011;8161;-33.910;151.156;2023-04-24T07:58:05;17.70;;;2.67;;
16113;SDS011;8161;-33.910;151.156;2023-04-24T08:00:32;20.42;;;3.20;;
16113;SDS011;8161;-33.910;151.156;2023-04-24T08:03:00;10.80;;;2.30;;
16113;SDS011;8161;-33.910;151.156;2023-04-24T08:05:27;13.60;;;2.42;;
16113;SDS011;8161;-33.910;151.156;2023-04-24T08:07:54;13.05;;;2.70;;
16113;SDS011;8161;-33.910;151.156;2023-04-24T08:10:22;12.38;;;2.60;;
16113;SDS011;8161;-33.910;151.156;2023-04-24T08:12:49;12.40;;;2.63;;
16113;SDS011;8161;-33.910;151.156;2023-04-24T08:15:16;11.10;;;2.40;;
16113;SDS011;8161;-33.910;151.156;2023-04-24T08:17:44;10.50;;;2.10;;
16113;SDS011;8161;-33.910;151.156;2023-04-24T08:20:15;10.07;;;2.47;;
16113;SDS011;8161;-33.910;151.156;2023-04-24T08:22:45;11.45;;;2.58;;
16113;SDS011;8161;-33.910;151.156;2023-04-24T08:25:14;10.73;;;2.35;;
16113;SDS011;8161;-33.910;151.156;2023-04-24T08:27:41;10.00;;;2.30;;
16113;SDS011;8161;-33.910;151.156;2023-04-24T08:30:09;11.60;;;2.72;;
16113;SDS011;8161;-33.910;151.156;2023-04-24T08:32:39;12.43;;;2.60;;
16113;SDS011;8161;-33.910;151.156;2023-04-24T08:35:06;14.10;;;2.88;;
16113;SDS011;8161;-33.910;151.156;2023-04-24T08:37:37;9.48;;;2.60;;
16113;SDS011;8161;-33.910;151.156;2023-04-24T08:40:06;10.35;;;2.63;;
16113;SDS011;8161;-33.910;151.156;2023-04-24T08:42:41;13.40;;;2.65;;
16113;SDS011;8161;-33.910;151.156;2023-04-24T08:45:10;12.98;;;3.15;;
16113;SDS011;8161;-33.910;151.156;2023-04-24T08:47:38;13.40;;;3.10;;
16113;SDS011;8161;-33.910;151.156;2023-04-24T08:50:07;12.38;;;3.20;;
16113;SDS011;8161;-33.910;151.156;2023-04-24T08:52:38;11.80;;;3.00;;
16113;SDS011;8161;-33.910;151.156;2023-04-24T08:55:05;11.35;;;3.50;;
16113;SDS011;8161;-33.910;151.156;2023-04-24T08:57:32;11.88;;;3.28;;
16113;SDS011;8161;-33.910;151.156;2023-04-24T09:00:01;8.97;;;3.10;;
16113;SDS011;8161;-33.910;151.156;2023-04-24T09:02:30;15.80;;;3.65;;
16113;SDS011;8161;-33.910;151.156;2023-04-24T09:04:59;14.82;;;3.38;;
16113;SDS011;8161;-33.910;151.156;2023-04-24T09:07:28;12.97;;;3.13;;
16113;SDS011;8161;-33.910;151.156;2023-04-24T09:09:59;12.48;;;2.83;;
16113;SDS011;8161;-33.910;151.156;2023-04-24T09:12:28;10.73;;;2.67;;
16113;SDS011;8161;-33.910;151.156;2023-04-24T09:14:56;15.57;;;3.25;;
16113;SDS011;8161;-33.910;151.156;2023-04-24T09:17:24;15.85;;;2.92;;
16113;SDS011;8161;-33.910;151.156;2023-04-24T09:19:53;12.75;;;2.83;;
16113;SDS011;8161;-33.910;151.156;2023-04-24T09:22:21;10.43;;;2.70;;
16113;SDS011;8161;-33.910;151.156;2023-04-24T09:25:02;15.47;;;3.30;;
16113;SDS011;8161;-33.910;151.156;2023-04-24T09:27:31;11.80;;;2.70;;
16113;SDS011;8161;-33.910;151.156;2023-04-24T09:29:59;11.98;;;2.97;;
16113;SDS011;8161;-33.910;151.156;2023-04-24T09:32:27;16.03;;;3.10;;
16113;SDS011;8161;-33.910;151.156;2023-04-24T09:35:05;13.45;;;3.15;;
16113;SDS011;8161;-33.910;151.156;2023-04-24T09:37:36;18.07;;;3.17;;
16113;SDS011;8161;-33.910;151.156;2023-04-24T09:40:11;14.52;;;3.50;;
16113;SDS011;8161;-33.910;151.156;2023-04-24T09:42:52;17.27;;;3.28;;
16113;SDS011;8161;-33.910;151.156;2023-04-24T09:45:27;22.38;;;3.90;;
16113;SDS011;8161;-33.910;151.156;2023-04-24T09:48:02;15.95;;;3.80;;
16113;SDS011;8161;-33.910;151.156;2023-04-24T09:50:31;19.27;;;3.90;;
16113;SDS011;8161;-33.910;151.156;2023-04-24T09:53:03;19.33;;;4.70;;
16113;SDS011;8161;-33.910;151.156;2023-04-24T09:55:31;16.92;;;3.53;;
16113;SDS011;8161;-33.910;151.156;2023-04-24T09:57:58;15.68;;;3.28;;
16113;SDS011;8161;-33.910;151.156;2023-04-24T10:00:31;17.38;;;3.30;;
16113;SDS011;8161;-33.910;151.156;2023-04-24T10:05:32;20.45;;;3.50;;
16113;SDS011;8161;-33.910;151.156;2023-04-24T10:08:05;16.17;;;3.28;;
16113;SDS011;8161;-33.910;151.156;2023-04-24T10:10:34;16.75;;;3.47;;
16113;SDS011;8161;-33.910;151.156;2023-04-24T10:13:05;16.05;;;3.15;;
16113;SDS011;8161;-33.910;151.156;2023-04-24T10:15:36;17.27;;;3.58;;
16113;SDS011;8161;-33.910;151.156;2023-04-24T10:18:04;13.57;;;3.42;;
16113;SDS011;8161;-33.910;151.156;2023-04-24T10:20:33;16.98;;;3.30;;
16113;SDS011;8161;-33.910;151.156;2023-04-24T10:23:01;13.02;;;3.15;;
16113;SDS011;8161;-33.910;151.156;2023-04-24T10:25:30;14.73;;;2.83;;
16113;SDS011;8161;-33.910;151.156;2023-04-24T10:27:59;18.35;;;3.58;;
16113;SDS011;8161;-33.910;151.156;2023-04-24T10:30:28;11.18;;;3.22;;
16113;SDS011;8161;-33.910;151.156;2023-04-24T10:33:03;17.38;;;3.33;;
16113;SDS011;8161;-33.910;151.156;2023-04-24T10:35:33;15.88;;;3.10;;
16113;SDS011;8161;-33.910;151.156;2023-04-24T10:38:07;20.42;;;4.30;;
16113;SDS011;8161;-33.910;151.156;2023-04-24T10:40:37;17.13;;;4.00;;
16113;SDS011;8161;-33.910;151.156;2023-04-24T10:43:04;19.37;;;3.73;;
16113;SDS011;8161;-33.910;151.156;2023-04-24T10:45:37;20.02;;;4.00;;
16113;SDS011;8161;-33.910;151.156;2023-04-24T10:48:06;17.45;;;3.92;;
16113;SDS011;8161;-33.910;151.156;2023-04-24T10:53:15;17.13;;;3.97;;
16113;SDS011;8161;-33.910;151.156;2023-04-24T10:55:47;15.00;;;3.97;;
16113;SDS011;8161;-33.910;151.156;2023-04-24T11:04:00;18.05;;;3.70;;
16113;SDS011;8161;-33.910;151.156;2023-04-24T11:06:29;22.03;;;4.67;;
16113;SDS011;8161;-33.910;151.156;2023-04-24T11:09:09;17.98;;;4.38;;
16113;SDS011;8161;-33.910;151.156;2023-04-24T11:11:38;15.82;;;3.95;;
16113;SDS011;8161;-33.910;151.156;2023-04-24T11:14:15;14.10;;;3.28;;
16113;SDS011;8161;-33.910;151.156;2023-04-24T11:16:51;14.00;;;3.35;;
16113;SDS011;8161;-33.910;151.156;2023-04-24T11:19:21;15.00;;;3.78;;
16113;SDS011;8161;-33.910;151.156;2023-04-24T11:24:29;16.27;;;4.60;;
16113;SDS011;8161;-33.910;151.156;2023-04-24T11:27:00;12.55;;;3.40;;
16113;SDS011;8161;-33.910;151.156;2023-04-24T11:29:40;14.88;;;4.07;;
16113;SDS011;8161;-33.910;151.156;2023-04-24T11:37:33;21.00;;;5.05;;
16113;SDS011;8161;-33.910;151.156;2023-04-24T11:40:01;14.65;;;4.35;;
16113;SDS011;8161;-33.910;151.156;2023-04-24T11:42:33;16.73;;;5.35;;
16113;SDS011;8161;-33.910;151.156;2023-04-24T11:45:08;16.45;;;5.97;;
16113;SDS011;8161;-33.910;151.156;2023-04-24T11:47:42;17.58;;;6.10;;
16113;SDS011;8161;-33.910;151.156;2023-04-24T11:50:11;19.50;;;6.38;;
16113;SDS011;8161;-33.910;151.156;2023-04-24T11:52:41;16.85;;;5.72;;
16113;SDS011;8161;-33.910;151.156;2023-04-24T11:55:30;17.77;;;5.88;;
16113;SDS011;8161;-33.910;151.156;2023-04-24T11:57:57;14.37;;;5.10;;
16113;SDS011;8161;-33.910;151.156;2023-04-24T12:00:26;16.55;;;5.57;;
16113;SDS011;8161;-33.910;151.156;2023-04-24T12:03:03;12.68;;;4.50;;
16113;SDS011;8161;-33.910;151.156;2023-04-24T12:05:32;15.77;;;4.35;;
16113;SDS011;8161;-33.910;151.156;2023-04-24T12:08:00;15.38;;;4.32;;
16113;SDS011;8161;-33.910;151.156;2023-04-24T12:10:28;16.33;;;4.20;;
16113;SDS011;8161;-33.910;151.156;2023-04-24T12:12:57;14.03;;;3.57;;
16113;SDS011;8161;-33.910;151.156;2023-04-24T12:15:25;14.02;;;3.67;;
16113;SDS011;8161;-33.910;151.156;2023-04-24T12:17:53;13.23;;;3.83;;
16113;SDS011;8161;-33.910;151.156;2023-04-24T12:20:28;15.30;;;4.47;;
16113;SDS011;8161;-33.910;151.156;2023-04-24T12:22:57;14.90;;;4.17;;
16113;SDS011;8161;-33.910;151.156;2023-04-24T12:25:26;13.07;;;4.20;;
16113;SDS011;8161;-33.910;151.156;2023-04-24T12:30:30;14.15;;;4.10;;
16113;SDS011;8161;-33.910;151.156;2023-04-24T12:32:59;14.50;;;3.95;;
16113;SDS011;8161;-33.910;151.156;2023-04-24T12:35:28;16.83;;;4.50;;
16113;SDS011;8161;-33.910;151.156;2023-04-24T12:38:07;15.30;;;4.23;;
16113;SDS011;8161;-33.910;151.156;2023-04-24T12:40:36;16.58;;;4.22;;
16113;SDS011;8161;-33.910;151.156;2023-04-24T12:43:12;16.17;;;4.63;;
16113;SDS011;8161;-33.910;151.156;2023-04-24T12:45:44;17.20;;;4.28;;
16113;SDS011;8161;-33.910;151.156;2023-04-24T12:48:12;14.75;;;4.20;;
16113;SDS011;8161;-33.910;151.156;2023-04-24T12:50:45;14.57;;;4.05;;
16113;SDS011;8161;-33.910;151.156;2023-04-24T12:53:12;16.40;;;4.38;;
16113;SDS011;8161;-33.910;151.156;2023-04-24T12:55:40;15.65;;;4.25;;
16113;SDS011;8161;-33.910;151.156;2023-04-24T12:58:08;14.60;;;3.80;;
16113;SDS011;8161;-33.910;151.156;2023-04-24T13:00:35;16.20;;;4.28;;
16113;SDS011;8161;-33.910;151.156;2023-04-24T13:03:02;16.05;;;4.22;;
16113;SDS011;8161;-33.910;151.156;2023-04-24T13:05:30;17.00;;;4.53;;
16113;SDS011;8161;-33.910;151.156;2023-04-24T13:07:57;13.30;;;3.72;;
16113;SDS011;8161;-33.910;151.156;2023-04-24T13:10:25;14.55;;;4.13;;
16113;SDS011;8161;-33.910;151.156;2023-04-24T13:12:52;18.15;;;4.50;;
16113;SDS011;8161;-33.910;151.156;2023-04-24T13:15:19;14.45;;;4.53;;
16113;SDS011;8161;-33.910;151.156;2023-04-24T13:17:46;17.75;;;4.93;;
16113;SDS011;8161;-33.910;151.156;2023-04-24T13:20:14;18.42;;;4.38;;
16113;SDS011;8161;-33.910;151.156;2023-04-24T13:22:41;19.42;;;4.70;;
16113;SDS011;8161;-33.910;151.156;2023-04-24T13:25:08;18.57;;;4.70;;
16113;SDS011;8161;-33.910;151.156;2023-04-24T13:27:38;15.82;;;4.20;;
16113;SDS011;8161;-33.910;151.156;2023-04-24T13:30:05;18.27;;;4.90;;
16113;SDS011;8161;-33.910;151.156;2023-04-24T13:32:33;18.58;;;4.45;;
16113;SDS011;8161;-33.910;151.156;2023-04-24T13:35:00;16.23;;;4.40;;
16113;SDS011;8161;-33.910;151.156;2023-04-24T13:37:28;21.98;;;5.13;;
16113;SDS011;8161;-33.910;151.156;2023-04-24T13:39:55;17.73;;;4.68;;
16113;SDS011;8161;-33.910;151.156;2023-04-24T13:42:22;18.25;;;4.82;;
16113;SDS011;8161;-33.910;151.156;2023-04-24T13:44:49;21.07;;;4.80;;
16113;SDS011;8161;-33.910;151.156;2023-04-24T13:47:17;18.33;;;5.70;;
16113;SDS011;8161;-33.910;151.156;2023-04-24T13:49:44;16.50;;;5.30;;
16113;SDS011;8161;-33.910;151.156;2023-04-24T13:52:11;21.08;;;6.55;;
16113;SDS011;8161;-33.910;151.156;2023-04-24T13:54:39;21.38;;;5.93;;
16113;SDS011;8161;-33.910;151.156;2023-04-24T13:57:09;22.33;;;6.17;;
16113;SDS011;8161;-33.910;151.156;2023-04-24T13:59:37;18.10;;;5.43;;
16113;SDS011;8161;-33.910;151.156;2023-04-24T14:02:05;24.52;;;6.38;;
16113;SDS011;8161;-33.910;151.156;2023-04-24T14:04:32;26.48;;;7.28;;
16113;SDS011;8161;-33.910;151.156;2023-04-24T14:07:00;22.90;;;6.67;;
16113;SDS011;8161;-33.910;151.156;2023-04-24T14:09:27;24.90;;;6.25;;
16113;SDS011;8161;-33.910;151.156;2023-04-24T14:11:54;21.10;;;6.10;;
16113;SDS011;8161;-33.910;151.156;2023-04-24T14:14:21;21.13;;;5.60;;
16113;SDS011;8161;-33.910;151.156;2023-04-24T14:16:49;21.67;;;6.75;;
16113;SDS011;8161;-33.910;151.156;2023-04-24T14:19:16;23.17;;;6.57;;
16113;SDS011;8161;-33.910;151.156;2023-04-24T14:21:43;20.43;;;6.30;;
16113;SDS011;8161;-33.910;151.156;2023-04-24T14:24:10;21.73;;;7.85;;
16113;SDS011;8161;-33.910;151.156;2023-04-24T14:26:37;23.55;;;7.22;;
16113;SDS011;8161;-33.910;151.156;2023-04-24T14:29:08;25.58;;;7.57;;
16113;SDS011;8161;-33.910;151.156;2023-04-24T14:31:35;24.13;;;7.70;;
16113;SDS011;8161;-33.910;151.156;2023-04-24T14:34:02;25.67;;;7.28;;
16113;SDS011;8161;-33.910;151.156;2023-04-24T14:36:32;23.73;;;7.00;;
16113;SDS011;8161;-33.910;151.156;2023-04-24T14:39:00;20.50;;;6.18;;
16113;SDS011;8161;-33.910;151.156;2023-04-24T14:41:32;17.98;;;5.75;;